Latest Weather Observations for Pallamana

IDS60801

Issued at 12:02 am CST Monday 25 July 2016 (issued every 30 minutes, with the page automatically refreshed every 10 minutes)

About weather observations | Map of weather stations | Latest weather observations for SA | Other Formats
Station Details ID: 024584 Name: PALLAMANA AERODROME Lat: -35.06 Lon: 139.23 Height: 45.0 m
Data from the previous 72 hours. | See also: Recent months at Pallamana
Date/Time
CST
Temp
°C
App
Temp
°C
Dew
Point
°C
Rel
Hum
%
Delta-T
°C
Wind Press
QNH
hPa
Press
MSL
hPa
Rain since
9am
mm
Dir  Spd
km/h
Gust
km/h
Spd
kts
Gust
kts
25/12:00am 9.7 5.1 5.5 75 1.9 W 19 26 10 14 1012.9 1012.9 5.6
 
Date/Time
CST
Temp
°C
App
Temp
°C
Dew
Point
°C
Rel
Hum
%
Delta-T
°C
Wind Press
QNH
hPa
Press
MSL
hPa
Rain since
9am
mm
Dir  Spd
km/h
Gust
km/h
Spd
kts
Gust
kts
24/11:30pm 9.8 5.0 5.4 74 2.0 W 20 30 11 16 1012.7 1012.7 5.6
24/11:00pm 10.2 4.2 5.4 72 2.2 W 26 37 14 20 1012.4 1012.4 5.6
24/10:30pm 9.6 5.1 6.1 79 1.6 W 19 26 10 14 1012.0 1012.0 5.6
24/10:00pm 10.1 4.7 6.5 78 1.7 W 24 39 13 21 1011.5 1011.5 5.6
24/09:49pm 10.4 4.2 6.3 76 1.9 W 28 46 15 25 1011.5 1011.5 5.6
24/09:30pm 10.5 4.4 6.5 76 1.9 W 28 44 15 24 1011.3 1011.3 5.6
24/09:05pm 10.6 4.5 6.6 76 1.9 W 28 52 15 28 1010.7 1010.8 5.6
24/09:00pm 10.6 4.5 6.6 76 1.9 W 28 39 15 21 1010.7 1010.8 5.6
24/08:30pm 10.0 3.2 7.0 81 1.4 W 32 54 17 29 1010.5 1010.6 5.6
24/08:12pm 10.1 4.2 7.4 83 1.3 W 28 46 15 25 1010.4 1010.5 5.4
24/08:03pm 10.4 3.0 6.8 78 1.7 W 35 50 19 27 1010.0 1010.1 5.4
24/08:00pm 10.3 3.5 6.9 79 1.6 W 32 50 17 27 1010.0 1010.1 5.4
24/07:49pm 9.9 3.6 7.6 85 1.1 W 30 48 16 26 1009.8 1009.9 5.4
24/07:37pm 9.9 3.6 7.6 85 1.1 W 30 41 16 22 1009.7 1009.8 4.4
24/07:30pm 10.1 4.2 7.4 83 1.3 W 28 41 15 22 1009.5 1009.6 4.4
24/07:27pm 10.0 4.1 7.5 84 1.2 W 28 44 15 24 1009.4 1009.5 4.4
24/07:08pm 10.1 4.6 7.6 84 1.2 W 26 41 14 22 1009.2 1009.3 3.6
24/07:00pm 10.1 5.0 7.6 84 1.2 W 24 39 13 21 1008.9 1009.0 3.2
24/06:49pm 10.2 3.5 7.3 82 1.4 WNW 32 56 17 30 1008.8 1008.9 3.2
24/06:45pm 10.1 3.8 7.4 83 1.3 WNW 30 48 16 26 1008.7 1008.8 3.0
24/06:39pm 10.1 3.2 7.4 83 1.3 W 33 46 18 25 1008.5 1008.6 3.0
24/06:30pm 10.3 2.9 6.9 79 1.6 W 35 57 19 31 1008.5 1008.6 2.2
24/06:00pm 10.8 1.7 6.1 73 2.2 WNW 43 69 23 37 1007.7 1007.8 1.2
24/05:30pm 11.5 2.9 4.7 63 3.1 WNW 39 61 21 33 1007.1 1007.2 0.8
24/05:05pm 11.1 2.9 5.0 66 2.8 WNW 37 56 20 30 1006.8 1006.9 0.8
24/05:00pm 10.8 3.5 5.4 69 2.5 WNW 33 48 18 26 1006.8 1006.9 0.8
24/04:30pm 11.7 4.2 4.2 60 3.4 WNW 33 56 18 30 1006.9 1007.0 0.8
24/04:00pm 11.4 3.9 4.6 63 3.1 WNW 33 56 18 30 1006.8 1006.9 0.8
24/03:30pm 12.0 4.0 4.0 58 3.6 WNW 35 54 19 29 1006.5 1006.6 0.8
24/03:04pm 12.1 4.4 3.6 56 3.8 WNW 33 52 18 28 1006.6 1006.7 0.8
24/03:00pm 12.2 4.5 3.5 55 3.9 WNW 33 50 18 27 1006.7 1006.8 0.8
24/02:30pm 12.4 4.9 3.7 55 3.9 WNW 32 50 17 27 1006.6 1006.7 0.8
24/02:00pm 10.6 3.0 5.6 71 2.3 WNW 35 63 19 34 1007.1 1007.2 0.8
24/01:30pm 10.3 3.1 5.8 73 2.1 WNW 33 52 18 28 1006.7 1006.8 0.6
24/01:03pm 12.1 4.7 4.9 61 3.3 WNW 33 52 18 28 1007.1 1007.2 0.6
24/01:00pm 11.6 3.7 4.3 61 3.3 WNW 35 52 19 28 1006.9 1007.0 0.6
24/12:30pm 10.8 2.2 4.4 64 2.9 WNW 39 57 21 31 1007.1 1007.2 0.6
24/12:18pm 11.2 4.1 5.6 68 2.6 NW 32 52 17 28 1007.4 1007.5 0.6
24/12:00pm 10.7 3.6 5.3 69 2.5 WNW 32 44 17 24 1007.6 1007.7 0.6
24/11:30am 8.9 3.2 4.9 76 1.8 NW 24 35 13 19 1008.2 1008.3 0.6
24/11:00am 7.7 -0.1 4.8 82 1.3 WNW 35 61 19 33 1008.6 1008.7 0.4
24/10:56am 8.2 -1.2 4.6 78 1.6 WNW 43 61 23 33 1008.7 1008.8 0.4
24/10:54am 8.4 -1.0 4.6 77 1.7 NW 43 61 23 33 1008.5 1008.6 0.4
24/10:30am 9.4 2.3 5.5 76 1.8 NW 32 50 17 27 1008.2 1008.3 0.2
24/10:04am 10.3 2.5 5.0 69 2.4 NNW 35 61 19 33 1008.4 1008.5 0.0
24/10:00am 10.7 3.2 4.7 66 2.7 NNW 33 48 18 26 1008.3 1008.4 0.0
24/09:30am 11.1 4.5 4.2 62 3.1 N 28 39 15 21 1008.0 1008.1 0.0
24/09:00am 10.6 3.0 5.6 71 2.3 NNE 35 48 19 26 1007.9 1008.0 0.0
24/08:30am 10.0 3.8 6.1 77 1.8 NNE 28 35 15 19 1008.2 1008.3 0.0
24/08:00am 6.7 0.9 4.2 84 1.1 NNE 24 30 13 16 1008.6 1008.7 0.0
24/07:30am 5.9 2.1 3.8 86 0.9 N 13 20 7 11 1009.0 1009.1 0.0
24/07:00am 4.8 0.5 3.1 89 0.7 N 15 19 8 10 1009.1 1009.2 0.0
24/06:30am 5.1 2.9 3.2 87 0.8 NNE 4 9 2 5 1009.4 1009.5 0.0
24/06:00am 5.0 0.4 3.6 91 0.6 N 17 19 9 10 1009.6 1009.7 0.0
24/05:30am 5.1 0.1 3.4 89 0.7 N 19 20 10 11 1009.8 1009.9 0.0
24/05:00am 5.5 0.9 3.6 87 0.8 N 17 20 9 11 1010.3 1010.4 0.0
24/04:30am 5.4 0.8 3.5 87 0.8 N 17 20 9 11 1010.1 1010.2 0.0
24/04:00am 3.5 0.2 2.5 93 0.4 N 9 11 5 6 1010.8 1010.9 0.0
24/03:30am 4.4 0.1 3.2 92 0.5 N 15 17 8 9 1011.4 1011.4 0.0
24/03:00am 5.3 0.1 3.6 89 0.7 N 20 24 11 13 1011.8 1011.8 0.0
24/02:30am 3.9 0.6 2.7 92 0.5 NNW 9 13 5 7 1012.4 1012.4 0.0
24/02:00am 4.4 0.8 3.2 92 0.5 N 11 17 6 9 1013.0 1013.0 0.0
24/01:30am 5.0 1.8 3.3 89 0.7 N 9 11 5 6 1013.5 1013.5 0.0
24/01:00am 7.0 3.3 4.2 82 1.2 N 13 20 7 11 1013.7 1013.7 0.0
24/12:30am 7.4 2.6 4.4 81 1.3 N 19 22 10 12 1014.2 1014.2 0.0
24/12:00am 7.2 2.4 4.4 82 1.2 NNW 19 24 10 13 1014.7 1014.7 0.0
 
Date/Time
CST
Temp
°C
App
Temp
°C
Dew
Point
°C
Rel
Hum
%
Delta-T
°C
Wind Press
QNH
hPa
Press
MSL
hPa
Rain since
9am
mm
Dir  Spd
km/h
Gust
km/h
Spd
kts
Gust
kts
23/11:30pm 5.7 1.9 3.8 87 0.8 NNW 13 17 7 9 1014.9 1014.9 0.0
23/11:00pm 5.3 1.8 3.6 89 0.7 N 11 15 6 8 1015.0 1015.0 0.0
23/10:30pm 4.8 1.3 3.4 91 0.6 N 11 13 6 7 1015.2 1015.2 0.0
23/10:00pm 6.6 3.3 4.3 85 1.0 WNW 11 13 6 7 1015.1 1015.1 0.0
23/09:30pm 5.5 3.1 4.1 91 0.6 N 6 9 3 5 1015.3 1015.3 0.0
23/09:00pm 6.2 3.2 4.1 86 0.9 NW 9 13 5 7 1015.5 1015.5 0.0
23/08:30pm 7.3 4.8 4.8 84 1.1 WNW 7 9 4 5 1015.6 1015.6 0.0
23/08:00pm 7.6 5.1 4.9 83 1.2 NW 7 11 4 6 1015.6 1015.6 0.0
23/07:30pm 8.8 5.1 4.7 75 1.8 W 13 17 7 9 1015.7 1015.7 0.0
23/07:00pm 8.7 5.1 5.1 78 1.6 W 13 15 7 8 1015.8 1015.8 0.0
23/06:30pm 8.5 5.8 5.4 81 1.4 W 9 11 5 6 1015.3 1015.3 0.0
23/06:00pm 9.5 6.3 5.1 74 2.0 W 11 15 6 8 1015.3 1015.3 0.0
23/05:30pm 10.3 6.6 4.7 68 2.5 W 13 17 7 9 1015.0 1015.0 0.0
23/05:00pm 10.8 6.2 3.8 62 3.1 W 17 24 9 13 1014.9 1014.9 0.0
23/04:30pm 11.3 8.4 4.9 65 2.9 SW 9 15 5 8 1014.8 1014.8 0.0
23/04:00pm 11.4 7.7 4.3 61 3.2 SSW 13 17 7 9 1014.8 1014.8 0.0
23/03:30pm 11.5 7.3 3.9 59 3.4 SSW 15 17 8 9 1014.8 1014.8 0.0
23/03:00pm 12.1 7.7 4.7 60 3.4 SW 17 22 9 12 1014.7 1014.7 0.0
23/02:30pm 12.3 8.4 3.6 55 3.9 SW 13 17 7 9 1014.5 1014.5 0.0
23/02:00pm 12.2 7.2 4.8 60 3.4 SSW 20 26 11 14 1014.3 1014.3 0.0
23/01:30pm 12.3 7.1 3.3 54 4.0 SW 20 28 11 15 1014.4 1014.4 0.0
23/01:00pm 12.8 7.5 1.6 46 4.8 WSW 19 28 10 15 1014.3 1014.3 0.0
23/12:30pm 12.9 8.0 2.1 48 4.7 WSW 17 26 9 14 1014.5 1014.5 0.0
23/12:00pm 12.3 6.7 3.3 54 4.0 SW 22 30 12 16 1014.7 1014.7 0.0
23/11:30am 13.1 7.9 3.5 52 4.3 SW 20 30 11 16 1014.8 1014.8 0.0
23/11:00am 11.8 6.2 3.2 55 3.8 WSW 22 32 12 17 1014.9 1014.9 0.0
23/10:30am 11.7 6.6 3.9 59 3.5 SW 20 32 11 17 1014.8 1014.8 0.0
23/10:00am 11.4 6.6 4.6 63 3.1 WSW 19 24 10 13 1014.5 1014.5 0.0
23/09:30am 10.8 6.9 5.3 69 2.5 WSW 15 20 8 11 1014.4 1014.4 0.0
23/09:00am 9.5 5.5 6.5 81 1.4 WSW 17 28 9 15 1013.9 1013.9 3.2
23/08:30am 9.2 5.3 5.2 76 1.8 W 15 19 8 10 1013.4 1013.4 3.2
23/08:00am 8.8 4.8 5.0 77 1.7 W 15 19 8 10 1013.0 1013.0 3.2
23/07:30am 8.6 3.9 5.3 80 1.5 WSW 19 24 10 13 1012.5 1012.5 3.2
23/07:00am 7.9 3.5 4.7 80 1.4 WSW 17 20 9 11 1011.9 1011.9 3.2
23/06:30am 8.2 4.2 4.8 79 1.5 W 15 19 8 10 1011.5 1011.5 3.2
23/06:00am 8.5 4.6 5.2 80 1.5 W 15 20 8 11 1010.8 1010.9 3.2
23/05:30am 8.8 4.5 5.3 79 1.6 W 17 24 9 13 1010.3 1010.4 3.2
23/05:00am 8.9 4.3 5.4 79 1.6 W 19 22 10 12 1009.7 1009.8 3.2
23/04:30am 9.1 4.3 5.4 77 1.7 W 20 30 11 16 1009.2 1009.3 3.2
23/04:00am 8.9 4.1 5.4 79 1.6 WSW 20 24 11 13 1008.7 1008.8 3.2
23/03:30am 9.2 3.2 5.2 76 1.8 WSW 26 35 14 19 1008.3 1008.4 3.2
23/03:00am 9.2 2.8 5.2 76 1.8 WSW 28 39 15 21 1008.1 1008.2 3.2
23/02:30am 9.6 2.4 4.9 72 2.1 WSW 32 43 17 23 1007.4 1007.5 3.2
23/02:00am 9.8 1.9 4.4 69 2.4 WSW 35 44 19 24 1007.0 1007.1 3.2
23/01:30am 10.0 0.4 4.4 68 2.5 WSW 44 57 24 31 1006.4 1006.5 3.2
23/01:00am 10.3 0.2 4.0 65 2.8 W 46 65 25 35 1005.9 1006.0 3.2
23/12:35am 10.3 0.9 4.5 67 2.6 W 43 61 23 33 1005.4 1005.5 3.2
23/12:30am 10.5 0.9 4.5 66 2.7 W 44 61 24 33 1005.3 1005.4 3.2
23/12:07am 10.5 1.8 4.0 64 2.9 W 39 59 21 32 1004.9 1005.0 3.2
23/12:00am 10.4 2.1 4.4 66 2.7 W 37 54 20 29 1004.8 1004.9 3.2
 
Date/Time
CST
Temp
°C
App
Temp
°C
Dew
Point
°C
Rel
Hum
%
Delta-T
°C
Wind Press
QNH
hPa
Press
MSL
hPa
Rain since
9am
mm
Dir  Spd
km/h
Gust
km/h
Spd
kts
Gust
kts
22/11:43pm 10.5 3.3 4.8 68 2.6 W 32 50 17 27 1004.7 1004.8 3.2
22/11:30pm 10.1 2.9 5.8 74 2.0 W 33 44 18 24 1004.8 1004.9 3.2
22/11:00pm 10.0 2.0 5.9 75 1.9 W 37 56 20 30 1004.1 1004.2 3.0
22/10:30pm 10.7 2.6 5.3 69 2.5 W 37 56 20 30 1004.1 1004.2 2.4
22/10:00pm 11.1 2.7 3.7 60 3.3 W 37 67 20 36 1003.7 1003.8 2.4
22/09:30pm 10.3 0.9 4.5 67 2.6 WNW 43 63 23 34 1003.5 1003.6 2.4
22/09:20pm 11.1 2.3 3.4 59 3.4 W 39 57 21 31 1003.5 1003.6 2.4
22/09:00pm 10.8 2.4 3.9 62 3.1 WNW 37 54 20 29 1002.9 1003.0 2.4
22/08:30pm 10.7 1.5 3.7 62 3.1 WNW 41 61 22 33 1003.0 1003.1 2.4
22/08:00pm 10.7 3.4 4.5 65 2.8 WNW 32 50 17 27 1002.9 1003.0 2.4
22/07:46pm 10.5 3.0 3.7 63 3.0 WNW 32 50 17 27 1002.8 1002.9 2.4
22/07:30pm 10.6 2.6 3.6 62 3.1 WNW 35 48 19 26 1002.7 1002.8 2.4
22/07:03pm 10.9 2.0 5.3 68 2.6 W 41 74 22 40 1002.9 1003.0 2.4
22/07:00pm 10.1 1.0 6.0 76 1.9 W 43 54 23 29 1002.8 1002.9 2.4
22/06:30pm 11.9 3.0 5.2 63 3.1 WNW 41 59 22 32 1001.5 1001.6 2.2
22/06:19pm 11.5 3.5 5.5 66 2.8 WNW 37 59 20 32 1001.3 1001.4 2.2
22/06:00pm 10.7 3.1 5.8 72 2.3 WNW 35 48 19 26 1001.0 1001.1 2.2
22/05:49pm 10.0 2.0 5.9 75 1.9 WNW 37 54 20 29 1001.2 1001.3 2.2
22/05:30pm 11.2 3.8 8.2 82 1.5 WNW 37 59 20 32 1001.4 1001.5 1.8
22/05:25pm 12.3 5.2 6.5 67 2.8 WNW 33 54 18 29 1000.5 1000.6 0.8
22/05:00pm 12.1 3.8 6.0 66 2.9 WNW 39 56 21 30 999.9 999.9 0.8
22/04:30pm 12.4 3.1 5.8 64 3.1 WNW 44 65 24 35 1000.3 1000.4 0.8
22/04:00pm 13.9 5.0 7.0 63 3.4 WNW 43 65 23 35 999.4 999.4 0.8
22/03:36pm 13.2 6.9 9.1 76 2.1 NW 32 50 17 27 999.8 999.8 0.8
22/03:30pm 13.5 6.5 8.3 71 2.6 NW 35 50 19 27 999.8 999.8 0.8
22/03:14pm 13.9 6.0 7.9 67 3.0 NW 39 61 21 33 999.6 999.6 0.8
22/03:00pm 14.5 7.5 8.4 67 3.1 NW 35 50 19 27 999.3 999.3 0.8
22/02:53pm 14.6 8.5 8.3 66 3.2 NW 30 50 16 27 999.3 999.3 0.8
22/02:30pm 14.5 9.4 9.3 71 2.7 WNW 26 39 14 21 999.4 999.4 0.8
22/02:00pm 13.3 9.4 10.8 85 1.3 WNW 22 35 12 19 1000.1 1000.1 0.6
22/01:30pm 15.2 10.2 9.4 68 3.0 NW 26 43 14 23 1000.0 1000.0 0.0
22/01:00pm 14.9 9.1 9.3 69 2.9 NW 30 44 16 24 1000.1 1000.1 0.0
22/12:31pm 14.9 8.1 9.3 69 2.9 NW 35 54 19 29 1000.2 1000.2 0.0
22/12:30pm 14.9 7.7 9.3 69 2.9 NW 37 54 20 29 1000.2 1000.2 0.0
22/12:00pm 15.2 9.7 9.2 67 3.1 NW 28 46 15 25 1001.1 1001.2 0.0
22/11:56am 15.0 9.2 9.4 69 2.9 NW 30 48 16 26 1001.2 1001.3 0.0
22/11:30am 14.7 9.8 9.9 73 2.5 NW 26 39 14 21 1001.7 1001.8 0.0
22/11:00am 15.3 10.6 9.3 67 3.1 NW 24 37 13 20 1002.2 1002.3 0.0
22/10:30am 15.3 10.1 8.9 65 3.3 NW 26 39 14 21 1002.7 1002.8 0.0
22/10:00am 15.3 8.9 8.4 63 3.5 WNW 32 44 17 24 1002.8 1002.9 0.0
22/09:48am 15.3 9.6 8.4 63 3.5 NW 28 46 15 25 1002.9 1003.0 0.0
22/09:30am 15.3 10.1 8.9 65 3.3 WNW 26 35 14 19 1003.0 1003.1 0.0
22/09:00am 15.1 10.8 9.3 68 3.0 NW 22 30 12 16 1003.0 1003.1 0.6
22/08:30am 14.7 10.4 9.3 70 2.8 WNW 22 35 12 19 1003.5 1003.6 0.6
22/08:00am 14.7 9.9 8.8 68 3.0 NW 24 33 13 18 1003.5 1003.6 0.6
22/07:30am 14.4 10.3 8.5 67 3.0 NW 20 26 11 14 1003.2 1003.3 0.6
22/07:00am 14.4 9.9 8.7 68 2.9 WNW 22 30 12 16 1003.2 1003.3 0.6
22/06:30am 13.7 9.7 9.2 74 2.3 WNW 20 30 11 16 1002.6 1002.7 0.6
22/06:00am 13.7 9.8 9.4 75 2.2 NW 20 33 11 18 1003.0 1003.1 0.6
22/05:30am 14.9 9.4 9.1 68 3.0 W 28 43 15 23 1003.1 1003.2 0.2
22/05:00am 15.7 10.7 9.6 67 3.2 WNW 26 37 14 20 1002.5 1002.6 0.2
22/04:30am 15.4 11.5 10.9 74 2.4 WNW 22 30 12 16 1002.4 1002.5 0.2
22/04:00am 15.2 11.7 10.9 75 2.3 NW 20 28 11 15 1002.5 1002.6 0.2
22/03:30am 15.2 12.2 10.7 74 2.4 NW 17 24 9 13 1002.4 1002.5 0.2
22/03:00am 15.7 12.3 10.4 71 2.8 NW 19 26 10 14 1002.9 1003.0 0.2
22/02:30am 15.3 13.2 11.0 75 2.3 NNW 13 17 7 9 1003.1 1003.2 0.0
22/02:00am 16.4 13.8 10.8 69 3.0 WNW 15 20 8 11 1003.6 1003.7 0.0
22/01:30am 17.3 14.8 11.0 66 3.4 WNW 15 22 8 12 1003.9 1004.0 0.0
22/01:00am 18.2 15.3 12.9 71 3.0 WNW 20 28 11 15 1003.9 1004.0 0.0
22/12:42am 19.1 14.4 13.3 69 3.3 WNW 30 48 16 26 1003.7 1003.8 0.0
22/12:30am 19.9 14.2 13.1 65 3.9 WNW 35 50 19 27 1004.1 1004.2 0.0
22/12:21am 20.7 15.9 12.8 60 4.5 WNW 30 50 16 27 1003.9 1004.0 0.0

Other Formats:

Comma delimited format used in spreadsheet applications
http://www.bom.gov.au/fwo/IDS60801/IDS60801.95818.axf

JavaScript Object Notation format (JSON) in row-major order
http://www.bom.gov.au/fwo/IDS60801/IDS60801.95818.json